sensor_id;sensor_type;location;lat;lon;timestamp;P1;durP1;ratioP1;P2;durP2;ratioP2
72920;SDS011;61064;51.654;5.476;2024-03-06T00:01:46;22.20;;;12.50;;
72920;SDS011;61064;51.654;5.476;2024-03-06T00:04:12;23.20;;;12.87;;
72920;SDS011;61064;51.654;5.476;2024-03-06T00:06:37;23.77;;;12.70;;
72920;SDS011;61064;51.654;5.476;2024-03-06T00:09:03;25.53;;;12.50;;
72920;SDS011;61064;51.654;5.476;2024-03-06T00:11:28;24.23;;;12.03;;
72920;SDS011;61064;51.654;5.476;2024-03-06T00:13:54;22.37;;;12.30;;
72920;SDS011;61064;51.654;5.476;2024-03-06T00:16:19;25.73;;;13.30;;
72920;SDS011;61064;51.654;5.476;2024-03-06T00:18:45;25.30;;;13.20;;
72920;SDS011;61064;51.654;5.476;2024-03-06T00:21:10;24.73;;;13.00;;
72920;SDS011;61064;51.654;5.476;2024-03-06T00:23:36;24.10;;;12.80;;
72920;SDS011;61064;51.654;5.476;2024-03-06T00:26:02;24.58;;;13.43;;
72920;SDS011;61064;51.654;5.476;2024-03-06T00:28:28;25.30;;;12.77;;
72920;SDS011;61064;51.654;5.476;2024-03-06T00:30:54;25.10;;;13.43;;
72920;SDS011;61064;51.654;5.476;2024-03-06T00:33:20;23.55;;;12.00;;
72920;SDS011;61064;51.654;5.476;2024-03-06T00:35:46;24.63;;;13.70;;
72920;SDS011;61064;51.654;5.476;2024-03-06T00:38:11;24.37;;;12.47;;
72920;SDS011;61064;51.654;5.476;2024-03-06T00:40:38;21.60;;;12.27;;
72920;SDS011;61064;51.654;5.476;2024-03-06T00:43:03;21.27;;;11.57;;
72920;SDS011;61064;51.654;5.476;2024-03-06T00:45:29;23.13;;;12.25;;
72920;SDS011;61064;51.654;5.476;2024-03-06T00:47:54;22.40;;;11.73;;
72920;SDS011;61064;51.654;5.476;2024-03-06T00:50:19;23.37;;;12.20;;
72920;SDS011;61064;51.654;5.476;2024-03-06T00:52:47;20.50;;;11.35;;
72920;SDS011;61064;51.654;5.476;2024-03-06T00:55:12;24.23;;;12.37;;
72920;SDS011;61064;51.654;5.476;2024-03-06T00:57:37;22.53;;;12.97;;
72920;SDS011;61064;51.654;5.476;2024-03-06T01:00:03;26.17;;;12.33;;
72920;SDS011;61064;51.654;5.476;2024-03-06T01:02:36;26.33;;;12.90;;
72920;SDS011;61064;51.654;5.476;2024-03-06T01:05:04;21.30;;;12.30;;
72920;SDS011;61064;51.654;5.476;2024-03-06T01:07:30;29.23;;;13.43;;
72920;SDS011;61064;51.654;5.476;2024-03-06T01:09:56;22.50;;;12.20;;
72920;SDS011;61064;51.654;5.476;2024-03-06T01:12:22;24.05;;;12.30;;
72920;SDS011;61064;51.654;5.476;2024-03-06T01:14:48;23.20;;;11.98;;
72920;SDS011;61064;51.654;5.476;2024-03-06T01:17:14;23.20;;;11.97;;
72920;SDS011;61064;51.654;5.476;2024-03-06T01:19:39;23.50;;;11.97;;
72920;SDS011;61064;51.654;5.476;2024-03-06T01:22:04;22.87;;;12.53;;
72920;SDS011;61064;51.654;5.476;2024-03-06T01:24:30;24.57;;;11.33;;
72920;SDS011;61064;51.654;5.476;2024-03-06T01:26:55;21.40;;;11.27;;
72920;SDS011;61064;51.654;5.476;2024-03-06T01:29:20;20.98;;;11.57;;
72920;SDS011;61064;51.654;5.476;2024-03-06T01:31:46;20.77;;;10.97;;
72920;SDS011;61064;51.654;5.476;2024-03-06T01:34:11;20.50;;;11.10;;
72920;SDS011;61064;51.654;5.476;2024-03-06T01:36:37;20.90;;;11.23;;
72920;SDS011;61064;51.654;5.476;2024-03-06T01:39:02;22.30;;;11.02;;
72920;SDS011;61064;51.654;5.476;2024-03-06T01:41:28;19.60;;;10.53;;
72920;SDS011;61064;51.654;5.476;2024-03-06T01:43:53;21.40;;;10.80;;
72920;SDS011;61064;51.654;5.476;2024-03-06T01:46:19;18.60;;;9.80;;
72920;SDS011;61064;51.654;5.476;2024-03-06T01:48:47;19.43;;;9.73;;
72920;SDS011;61064;51.654;5.476;2024-03-06T01:51:13;18.98;;;9.73;;
72920;SDS011;61064;51.654;5.476;2024-03-06T01:53:38;16.10;;;9.00;;
72920;SDS011;61064;51.654;5.476;2024-03-06T01:56:04;18.13;;;8.97;;
72920;SDS011;61064;51.654;5.476;2024-03-06T01:58:30;19.88;;;9.90;;
72920;SDS011;61064;51.654;5.476;2024-03-06T02:00:58;19.77;;;10.20;;
72920;SDS011;61064;51.654;5.476;2024-03-06T02:03:26;20.67;;;10.88;;
72920;SDS011;61064;51.654;5.476;2024-03-06T02:05:51;21.10;;;10.33;;
72920;SDS011;61064;51.654;5.476;2024-03-06T02:08:18;22.00;;;9.82;;
72920;SDS011;61064;51.654;5.476;2024-03-06T02:10:44;21.43;;;10.67;;
72920;SDS011;61064;51.654;5.476;2024-03-06T02:13:10;23.27;;;10.38;;
72920;SDS011;61064;51.654;5.476;2024-03-06T02:15:35;24.20;;;11.03;;
72920;SDS011;61064;51.654;5.476;2024-03-06T02:18:04;21.50;;;11.20;;
72920;SDS011;61064;51.654;5.476;2024-03-06T02:20:30;21.15;;;11.18;;
72920;SDS011;61064;51.654;5.476;2024-03-06T02:22:55;26.33;;;11.50;;
72920;SDS011;61064;51.654;5.476;2024-03-06T02:25:21;23.10;;;11.30;;
72920;SDS011;61064;51.654;5.476;2024-03-06T02:27:46;22.70;;;11.85;;
72920;SDS011;61064;51.654;5.476;2024-03-06T02:30:13;22.60;;;11.10;;
72920;SDS011;61064;51.654;5.476;2024-03-06T02:32:38;22.33;;;11.65;;
72920;SDS011;61064;51.654;5.476;2024-03-06T02:35:04;21.60;;;11.57;;
72920;SDS011;61064;51.654;5.476;2024-03-06T02:37:33;21.83;;;11.38;;
72920;SDS011;61064;51.654;5.476;2024-03-06T02:39:59;20.13;;;10.50;;
72920;SDS011;61064;51.654;5.476;2024-03-06T02:42:24;21.23;;;10.70;;
72920;SDS011;61064;51.654;5.476;2024-03-06T02:44:50;22.17;;;10.53;;
72920;SDS011;61064;51.654;5.476;2024-03-06T02:47:15;21.57;;;11.53;;
72920;SDS011;61064;51.654;5.476;2024-03-06T02:49:40;23.83;;;12.30;;
72920;SDS011;61064;51.654;5.476;2024-03-06T02:52:06;22.27;;;11.70;;
72920;SDS011;61064;51.654;5.476;2024-03-06T02:54:31;23.00;;;11.63;;
72920;SDS011;61064;51.654;5.476;2024-03-06T02:56:56;26.13;;;12.07;;
72920;SDS011;61064;51.654;5.476;2024-03-06T02:59:24;20.33;;;10.87;;
72920;SDS011;61064;51.654;5.476;2024-03-06T03:01:50;22.83;;;11.73;;
72920;SDS011;61064;51.654;5.476;2024-03-06T03:04:15;23.57;;;11.83;;
72920;SDS011;61064;51.654;5.476;2024-03-06T03:06:40;23.90;;;11.33;;
72920;SDS011;61064;51.654;5.476;2024-03-06T03:09:06;21.33;;;10.83;;
72920;SDS011;61064;51.654;5.476;2024-03-06T03:11:31;24.37;;;11.63;;
72920;SDS011;61064;51.654;5.476;2024-03-06T03:14:00;26.67;;;12.80;;
72920;SDS011;61064;51.654;5.476;2024-03-06T03:16:26;25.37;;;13.30;;
72920;SDS011;61064;51.654;5.476;2024-03-06T03:18:51;27.92;;;14.10;;
72920;SDS011;61064;51.654;5.476;2024-03-06T03:21:17;29.00;;;14.07;;
72920;SDS011;61064;51.654;5.476;2024-03-06T03:23:42;31.27;;;14.93;;
72920;SDS011;61064;51.654;5.476;2024-03-06T03:26:08;28.52;;;14.57;;
72920;SDS011;61064;51.654;5.476;2024-03-06T03:28:37;30.35;;;14.90;;
72920;SDS011;61064;51.654;5.476;2024-03-06T03:31:04;30.50;;;15.10;;
72920;SDS011;61064;51.654;5.476;2024-03-06T03:33:31;31.05;;;15.00;;
72920;SDS011;61064;51.654;5.476;2024-03-06T03:35:56;31.80;;;16.07;;
72920;SDS011;61064;51.654;5.476;2024-03-06T03:38:21;32.53;;;15.47;;
72920;SDS011;61064;51.654;5.476;2024-03-06T03:40:47;32.53;;;15.63;;
72920;SDS011;61064;51.654;5.476;2024-03-06T03:43:12;30.47;;;15.43;;
72920;SDS011;61064;51.654;5.476;2024-03-06T03:45:37;32.73;;;15.63;;
72920;SDS011;61064;51.654;5.476;2024-03-06T03:48:04;29.57;;;14.20;;
72920;SDS011;61064;51.654;5.476;2024-03-06T03:50:30;31.85;;;15.18;;
72920;SDS011;61064;51.654;5.476;2024-03-06T03:52:55;31.63;;;15.47;;
72920;SDS011;61064;51.654;5.476;2024-03-06T03:55:23;30.87;;;14.50;;
72920;SDS011;61064;51.654;5.476;2024-03-06T03:57:49;29.38;;;15.23;;
72920;SDS011;61064;51.654;5.476;2024-03-06T04:00:16;30.52;;;14.73;;
72920;SDS011;61064;51.654;5.476;2024-03-06T04:02:41;27.73;;;13.63;;
72920;SDS011;61064;51.654;5.476;2024-03-06T04:05:07;28.63;;;14.00;;
72920;SDS011;61064;51.654;5.476;2024-03-06T04:07:32;28.27;;;13.90;;
72920;SDS011;61064;51.654;5.476;2024-03-06T04:09:58;28.37;;;14.17;;
72920;SDS011;61064;51.654;5.476;2024-03-06T04:12:23;26.80;;;13.63;;
72920;SDS011;61064;51.654;5.476;2024-03-06T04:14:49;26.57;;;13.40;;
72920;SDS011;61064;51.654;5.476;2024-03-06T04:17:14;29.23;;;13.93;;
72920;SDS011;61064;51.654;5.476;2024-03-06T04:19:44;27.38;;;14.60;;
72920;SDS011;61064;51.654;5.476;2024-03-06T04:22:10;30.33;;;14.65;;
72920;SDS011;61064;51.654;5.476;2024-03-06T04:24:35;27.27;;;13.93;;
72920;SDS011;61064;51.654;5.476;2024-03-06T04:27:00;28.33;;;14.57;;
72920;SDS011;61064;51.654;5.476;2024-03-06T04:29:26;30.23;;;14.87;;
72920;SDS011;61064;51.654;5.476;2024-03-06T04:31:51;30.27;;;14.33;;
72920;SDS011;61064;51.654;5.476;2024-03-06T04:34:17;26.80;;;13.40;;
72920;SDS011;61064;51.654;5.476;2024-03-06T04:36:42;24.67;;;13.30;;
72920;SDS011;61064;51.654;5.476;2024-03-06T04:39:07;29.70;;;13.17;;
72920;SDS011;61064;51.654;5.476;2024-03-06T04:41:33;27.07;;;14.40;;
72920;SDS011;61064;51.654;5.476;2024-03-06T04:43:59;27.23;;;14.02;;
72920;SDS011;61064;51.654;5.476;2024-03-06T04:46:26;27.45;;;13.80;;
72920;SDS011;61064;51.654;5.476;2024-03-06T04:48:51;29.70;;;14.57;;
72920;SDS011;61064;51.654;5.476;2024-03-06T04:51:17;26.30;;;13.82;;
72920;SDS011;61064;51.654;5.476;2024-03-06T04:53:44;30.40;;;14.90;;
72920;SDS011;61064;51.654;5.476;2024-03-06T04:56:10;27.97;;;13.83;;
72920;SDS011;61064;51.654;5.476;2024-03-06T04:58:36;30.90;;;15.05;;
72920;SDS011;61064;51.654;5.476;2024-03-06T05:01:01;31.63;;;16.37;;
72920;SDS011;61064;51.654;5.476;2024-03-06T05:03:28;30.13;;;15.40;;
72920;SDS011;61064;51.654;5.476;2024-03-06T05:05:54;31.43;;;14.87;;
72920;SDS011;61064;51.654;5.476;2024-03-06T05:08:19;32.70;;;15.50;;
72920;SDS011;61064;51.654;5.476;2024-03-06T05:10:45;30.27;;;15.23;;
72920;SDS011;61064;51.654;5.476;2024-03-06T05:13:11;31.08;;;14.80;;
72920;SDS011;61064;51.654;5.476;2024-03-06T05:15:39;31.30;;;15.47;;
72920;SDS011;61064;51.654;5.476;2024-03-06T05:18:05;29.98;;;14.70;;
72920;SDS011;61064;51.654;5.476;2024-03-06T05:20:30;30.73;;;14.13;;
72920;SDS011;61064;51.654;5.476;2024-03-06T05:22:56;29.05;;;14.13;;
72920;SDS011;61064;51.654;5.476;2024-03-06T05:25:24;30.17;;;13.77;;
72920;SDS011;61064;51.654;5.476;2024-03-06T05:27:50;27.77;;;14.05;;
72920;SDS011;61064;51.654;5.476;2024-03-06T05:30:15;30.67;;;14.77;;
72920;SDS011;61064;51.654;5.476;2024-03-06T05:32:41;31.73;;;14.30;;
72920;SDS011;61064;51.654;5.476;2024-03-06T05:35:06;29.20;;;14.53;;
72920;SDS011;61064;51.654;5.476;2024-03-06T05:37:35;31.58;;;14.38;;
72920;SDS011;61064;51.654;5.476;2024-03-06T05:40:00;37.80;;;16.10;;
72920;SDS011;61064;51.654;5.476;2024-03-06T05:42:32;29.52;;;14.80;;
72920;SDS011;61064;51.654;5.476;2024-03-06T05:44:57;30.47;;;14.83;;
72920;SDS011;61064;51.654;5.476;2024-03-06T05:47:29;28.33;;;14.20;;
72920;SDS011;61064;51.654;5.476;2024-03-06T05:49:56;29.80;;;14.80;;
72920;SDS011;61064;51.654;5.476;2024-03-06T05:52:21;29.20;;;14.93;;
72920;SDS011;61064;51.654;5.476;2024-03-06T05:54:47;29.83;;;15.03;;
72920;SDS011;61064;51.654;5.476;2024-03-06T05:57:13;28.23;;;14.03;;
72920;SDS011;61064;51.654;5.476;2024-03-06T05:59:40;31.83;;;14.10;;
72920;SDS011;61064;51.654;5.476;2024-03-06T06:02:05;32.97;;;14.40;;
72920;SDS011;61064;51.654;5.476;2024-03-06T06:04:31;29.33;;;14.48;;
72920;SDS011;61064;51.654;5.476;2024-03-06T06:06:56;33.40;;;15.43;;
72920;SDS011;61064;51.654;5.476;2024-03-06T06:09:25;30.57;;;15.13;;
72920;SDS011;61064;51.654;5.476;2024-03-06T06:11:50;32.33;;;16.60;;
72920;SDS011;61064;51.654;5.476;2024-03-06T06:14:16;30.85;;;15.85;;
72920;SDS011;61064;51.654;5.476;2024-03-06T06:16:41;34.00;;;15.83;;
72920;SDS011;61064;51.654;5.476;2024-03-06T06:19:07;32.87;;;16.47;;
72920;SDS011;61064;51.654;5.476;2024-03-06T06:21:34;35.30;;;17.10;;
72920;SDS011;61064;51.654;5.476;2024-03-06T06:24:01;32.20;;;16.55;;
72920;SDS011;61064;51.654;5.476;2024-03-06T06:26:28;35.50;;;17.52;;
72920;SDS011;61064;51.654;5.476;2024-03-06T06:28:54;34.23;;;17.73;;
72920;SDS011;61064;51.654;5.476;2024-03-06T06:31:19;34.50;;;17.33;;
72920;SDS011;61064;51.654;5.476;2024-03-06T06:33:45;30.27;;;15.70;;
72920;SDS011;61064;51.654;5.476;2024-03-06T06:36:11;33.78;;;16.90;;
72920;SDS011;61064;51.654;5.476;2024-03-06T06:38:36;30.93;;;16.80;;
72920;SDS011;61064;51.654;5.476;2024-03-06T06:41:01;34.80;;;16.70;;
72920;SDS011;61064;51.654;5.476;2024-03-06T06:43:27;31.80;;;15.80;;
72920;SDS011;61064;51.654;5.476;2024-03-06T06:45:53;27.48;;;14.98;;
72920;SDS011;61064;51.654;5.476;2024-03-06T06:48:19;31.87;;;15.97;;
72920;SDS011;61064;51.654;5.476;2024-03-06T06:50:44;28.67;;;14.50;;
72920;SDS011;61064;51.654;5.476;2024-03-06T06:53:12;37.05;;;14.50;;
72920;SDS011;61064;51.654;5.476;2024-03-06T06:55:38;54.28;;;15.10;;
72920;SDS011;61064;51.654;5.476;2024-03-06T06:58:03;48.67;;;14.17;;
72920;SDS011;61064;51.654;5.476;2024-03-06T07:00:29;96.83;;;14.90;;
72920;SDS011;61064;51.654;5.476;2024-03-06T07:02:58;64.13;;;14.73;;
72920;SDS011;61064;51.654;5.476;2024-03-06T07:05:23;33.83;;;12.87;;
72920;SDS011;61064;51.654;5.476;2024-03-06T07:07:49;65.78;;;15.95;;
72920;SDS011;61064;51.654;5.476;2024-03-06T07:10:14;70.17;;;14.40;;
72920;SDS011;61064;51.654;5.476;2024-03-06T07:12:41;73.00;;;13.85;;
72920;SDS011;61064;51.654;5.476;2024-03-06T07:15:06;55.03;;;15.73;;
72920;SDS011;61064;51.654;5.476;2024-03-06T07:17:32;33.33;;;13.33;;
72920;SDS011;61064;51.654;5.476;2024-03-06T07:19:57;65.20;;;13.80;;
72920;SDS011;61064;51.654;5.476;2024-03-06T07:22:23;53.28;;;12.45;;
72920;SDS011;61064;51.654;5.476;2024-03-06T07:24:48;95.93;;;16.57;;
72920;SDS011;61064;51.654;5.476;2024-03-06T07:27:14;48.43;;;12.47;;
72920;SDS011;61064;51.654;5.476;2024-03-06T07:29:39;44.70;;;12.63;;
72920;SDS011;61064;51.654;5.476;2024-03-06T07:32:05;52.30;;;12.43;;
72920;SDS011;61064;51.654;5.476;2024-03-06T07:34:30;91.07;;;16.10;;
72920;SDS011;61064;51.654;5.476;2024-03-06T07:36:56;96.90;;;14.27;;
72920;SDS011;61064;51.654;5.476;2024-03-06T07:39:23;45.95;;;12.88;;
72920;SDS011;61064;51.654;5.476;2024-03-06T07:41:49;28.87;;;11.33;;
72920;SDS011;61064;51.654;5.476;2024-03-06T07:44:14;45.73;;;13.17;;
72920;SDS011;61064;51.654;5.476;2024-03-06T07:46:39;49.33;;;13.37;;
72920;SDS011;61064;51.654;5.476;2024-03-06T07:49:05;47.53;;;12.48;;
72920;SDS011;61064;51.654;5.476;2024-03-06T07:51:33;42.47;;;11.67;;
72920;SDS011;61064;51.654;5.476;2024-03-06T07:53:59;49.47;;;13.20;;
72920;SDS011;61064;51.654;5.476;2024-03-06T07:56:25;44.60;;;13.20;;
72920;SDS011;61064;51.654;5.476;2024-03-06T07:58:53;26.30;;;11.47;;
72920;SDS011;61064;51.654;5.476;2024-03-06T08:01:22;29.48;;;12.55;;
72920;SDS011;61064;51.654;5.476;2024-03-06T08:03:49;42.22;;;13.10;;
72920;SDS011;61064;51.654;5.476;2024-03-06T08:06:15;38.20;;;13.00;;
72920;SDS011;61064;51.654;5.476;2024-03-06T08:08:41;44.10;;;12.73;;
72920;SDS011;61064;51.654;5.476;2024-03-06T08:11:09;34.63;;;13.05;;
72920;SDS011;61064;51.654;5.476;2024-03-06T08:13:36;36.43;;;12.90;;
72920;SDS011;61064;51.654;5.476;2024-03-06T08:16:01;29.52;;;13.00;;
72920;SDS011;61064;51.654;5.476;2024-03-06T08:18:27;37.10;;;13.00;;
72920;SDS011;61064;51.654;5.476;2024-03-06T08:20:53;28.52;;;13.00;;
72920;SDS011;61064;51.654;5.476;2024-03-06T08:23:18;25.93;;;13.63;;
72920;SDS011;61064;51.654;5.476;2024-03-06T08:25:44;50.10;;;13.73;;
72920;SDS011;61064;51.654;5.476;2024-03-06T08:28:10;40.37;;;13.80;;
72920;SDS011;61064;51.654;5.476;2024-03-06T08:30:35;27.15;;;13.07;;
72920;SDS011;61064;51.654;5.476;2024-03-06T08:33:01;41.83;;;13.70;;
72920;SDS011;61064;51.654;5.476;2024-03-06T08:35:26;39.77;;;13.77;;
72920;SDS011;61064;51.654;5.476;2024-03-06T08:37:52;35.77;;;13.93;;
72920;SDS011;61064;51.654;5.476;2024-03-06T08:40:17;49.93;;;13.43;;
72920;SDS011;61064;51.654;5.476;2024-03-06T08:42:43;38.40;;;13.32;;
72920;SDS011;61064;51.654;5.476;2024-03-06T08:45:10;49.30;;;14.73;;
72920;SDS011;61064;51.654;5.476;2024-03-06T08:47:36;25.07;;;13.30;;
72920;SDS011;61064;51.654;5.476;2024-03-06T08:50:02;26.98;;;13.98;;
72920;SDS011;61064;51.654;5.476;2024-03-06T08:52:28;31.00;;;14.50;;
72920;SDS011;61064;51.654;5.476;2024-03-06T08:54:56;26.42;;;14.27;;
72920;SDS011;61064;51.654;5.476;2024-03-06T08:57:21;25.17;;;14.23;;
72920;SDS011;61064;51.654;5.476;2024-03-06T08:59:47;26.47;;;14.43;;
72920;SDS011;61064;51.654;5.476;2024-03-06T09:02:13;26.50;;;14.85;;
72920;SDS011;61064;51.654;5.476;2024-03-06T09:04:40;27.87;;;15.00;;
72920;SDS011;61064;51.654;5.476;2024-03-06T09:07:08;26.80;;;15.38;;
72920;SDS011;61064;51.654;5.476;2024-03-06T09:09:35;27.27;;;15.65;;
72920;SDS011;61064;51.654;5.476;2024-03-06T09:12:02;26.35;;;16.05;;
72920;SDS011;61064;51.654;5.476;2024-03-06T09:14:30;29.92;;;15.68;;
72920;SDS011;61064;51.654;5.476;2024-03-06T09:16:55;33.83;;;16.27;;
72920;SDS011;61064;51.654;5.476;2024-03-06T09:19:20;30.27;;;16.00;;
72920;SDS011;61064;51.654;5.476;2024-03-06T09:21:47;29.40;;;15.68;;
72920;SDS011;61064;51.654;5.476;2024-03-06T09:24:15;28.92;;;15.63;;
72920;SDS011;61064;51.654;5.476;2024-03-06T09:26:40;31.13;;;16.00;;
72920;SDS011;61064;51.654;5.476;2024-03-06T09:29:06;29.13;;;15.43;;
72920;SDS011;61064;51.654;5.476;2024-03-06T09:31:31;30.53;;;15.97;;
72920;SDS011;61064;51.654;5.476;2024-03-06T09:33:56;32.10;;;16.87;;
72920;SDS011;61064;51.654;5.476;2024-03-06T09:36:23;28.73;;;16.93;;
72920;SDS011;61064;51.654;5.476;2024-03-06T09:38:48;30.83;;;16.63;;
72920;SDS011;61064;51.654;5.476;2024-03-06T09:41:14;35.23;;;19.10;;
72920;SDS011;61064;51.654;5.476;2024-03-06T09:43:39;32.13;;;18.38;;
72920;SDS011;61064;51.654;5.476;2024-03-06T09:46:07;30.87;;;18.30;;
72920;SDS011;61064;51.654;5.476;2024-03-06T09:48:33;35.92;;;18.67;;
72920;SDS011;61064;51.654;5.476;2024-03-06T09:51:00;35.20;;;19.07;;
72920;SDS011;61064;51.654;5.476;2024-03-06T09:53:27;33.95;;;18.67;;
72920;SDS011;61064;51.654;5.476;2024-03-06T09:55:53;32.03;;;17.83;;
72920;SDS011;61064;51.654;5.476;2024-03-06T09:58:21;31.97;;;17.37;;
72920;SDS011;61064;51.654;5.476;2024-03-06T10:00:47;31.85;;;18.80;;
72920;SDS011;61064;51.654;5.476;2024-03-06T10:03:15;32.13;;;18.70;;
72920;SDS011;61064;51.654;5.476;2024-03-06T10:05:40;30.80;;;18.23;;
72920;SDS011;61064;51.654;5.476;2024-03-06T10:08:05;31.13;;;18.17;;
72920;SDS011;61064;51.654;5.476;2024-03-06T10:10:35;30.90;;;18.50;;
72920;SDS011;61064;51.654;5.476;2024-03-06T10:13:00;33.22;;;18.15;;
72920;SDS011;61064;51.654;5.476;2024-03-06T10:15:26;27.90;;;15.83;;
72920;SDS011;61064;51.654;5.476;2024-03-06T10:18:09;27.80;;;16.60;;
72920;SDS011;61064;51.654;5.476;2024-03-06T10:20:37;29.83;;;16.40;;
72920;SDS011;61064;51.654;5.476;2024-03-06T10:23:02;27.03;;;16.03;;
72920;SDS011;61064;51.654;5.476;2024-03-06T10:25:28;24.70;;;15.87;;
72920;SDS011;61064;51.654;5.476;2024-03-06T10:30:37;22.13;;;13.30;;
72920;SDS011;61064;51.654;5.476;2024-03-06T10:33:07;20.80;;;12.82;;
72920;SDS011;61064;51.654;5.476;2024-03-06T10:35:36;22.83;;;13.10;;
72920;SDS011;61064;51.654;5.476;2024-03-06T10:38:02;22.08;;;12.40;;
72920;SDS011;61064;51.654;5.476;2024-03-06T10:40:32;22.83;;;12.07;;
72920;SDS011;61064;51.654;5.476;2024-03-06T10:43:02;19.52;;;11.40;;
72920;SDS011;61064;51.654;5.476;2024-03-06T10:48:26;18.70;;;11.25;;
72920;SDS011;61064;51.654;5.476;2024-03-06T10:50:53;18.60;;;10.35;;
72920;SDS011;61064;51.654;5.476;2024-03-06T10:53:20;18.63;;;10.63;;
72920;SDS011;61064;51.654;5.476;2024-03-06T10:55:48;15.60;;;8.65;;
72920;SDS011;61064;51.654;5.476;2024-03-06T10:58:15;16.27;;;8.00;;
72920;SDS011;61064;51.654;5.476;2024-03-06T11:00:43;17.35;;;8.55;;
72920;SDS011;61064;51.654;5.476;2024-03-06T11:03:13;16.10;;;8.75;;
72920;SDS011;61064;51.654;5.476;2024-03-06T11:05:39;17.33;;;9.20;;
72920;SDS011;61064;51.654;5.476;2024-03-06T11:08:06;14.57;;;9.02;;
72920;SDS011;61064;51.654;5.476;2024-03-06T11:10:37;15.50;;;8.30;;
72920;SDS011;61064;51.654;5.476;2024-03-06T11:13:07;15.43;;;8.85;;
72920;SDS011;61064;51.654;5.476;2024-03-06T11:15:46;14.55;;;8.00;;
72920;SDS011;61064;51.654;5.476;2024-03-06T11:23:27;12.68;;;6.90;;
72920;SDS011;61064;51.654;5.476;2024-03-06T11:28:24;13.25;;;6.97;;
72920;SDS011;61064;51.654;5.476;2024-03-06T11:30:58;11.65;;;6.35;;
72920;SDS011;61064;51.654;5.476;2024-03-06T11:33:34;15.82;;;7.22;;
72920;SDS011;61064;51.654;5.476;2024-03-06T11:36:19;15.20;;;7.57;;
72920;SDS011;61064;51.654;5.476;2024-03-06T11:38:57;16.27;;;8.47;;
72920;SDS011;61064;51.654;5.476;2024-03-06T11:41:24;14.40;;;7.50;;
72920;SDS011;61064;51.654;5.476;2024-03-06T11:43:51;16.73;;;7.43;;
72920;SDS011;61064;51.654;5.476;2024-03-06T11:46:21;14.40;;;7.22;;
72920;SDS011;61064;51.654;5.476;2024-03-06T11:49:16;13.57;;;7.50;;
72920;SDS011;61064;51.654;5.476;2024-03-06T11:51:44;16.07;;;7.80;;
72920;SDS011;61064;51.654;5.476;2024-03-06T11:54:11;12.98;;;7.45;;
72920;SDS011;61064;51.654;5.476;2024-03-06T11:56:44;15.57;;;7.85;;
72920;SDS011;61064;51.654;5.476;2024-03-06T11:59:12;15.45;;;7.95;;
72920;SDS011;61064;51.654;5.476;2024-03-06T12:01:37;14.80;;;7.53;;
72920;SDS011;61064;51.654;5.476;2024-03-06T12:04:03;14.10;;;7.50;;
72920;SDS011;61064;51.654;5.476;2024-03-06T12:06:34;13.75;;;8.00;;
72920;SDS011;61064;51.654;5.476;2024-03-06T12:09:01;13.82;;;8.25;;
72920;SDS011;61064;51.654;5.476;2024-03-06T12:11:26;14.50;;;7.90;;
72920;SDS011;61064;51.654;5.476;2024-03-06T12:13:53;14.67;;;8.37;;
72920;SDS011;61064;51.654;5.476;2024-03-06T12:16:19;14.25;;;7.90;;
72920;SDS011;61064;51.654;5.476;2024-03-06T12:18:44;14.90;;;7.47;;
72920;SDS011;61064;51.654;5.476;2024-03-06T12:21:11;13.13;;;7.50;;
72920;SDS011;61064;51.654;5.476;2024-03-06T12:23:36;14.13;;;7.60;;
72920;SDS011;61064;51.654;5.476;2024-03-06T12:26:05;13.27;;;7.82;;
72920;SDS011;61064;51.654;5.476;2024-03-06T12:28:39;13.43;;;7.47;;
72920;SDS011;61064;51.654;5.476;2024-03-06T12:31:05;14.50;;;7.55;;
72920;SDS011;61064;51.654;5.476;2024-03-06T12:33:32;13.07;;;7.80;;
72920;SDS011;61064;51.654;5.476;2024-03-06T12:36:02;13.57;;;7.30;;
72920;SDS011;61064;51.654;5.476;2024-03-06T12:38:32;12.35;;;7.15;;
72920;SDS011;61064;51.654;5.476;2024-03-06T12:40:58;13.13;;;7.20;;
72920;SDS011;61064;51.654;5.476;2024-03-06T12:43:25;15.05;;;7.60;;
72920;SDS011;61064;51.654;5.476;2024-03-06T12:45:51;14.30;;;7.53;;
72920;SDS011;61064;51.654;5.476;2024-03-06T12:48:20;13.20;;;7.63;;
72920;SDS011;61064;51.654;5.476;2024-03-06T12:50:50;13.85;;;7.15;;
72920;SDS011;61064;51.654;5.476;2024-03-06T12:53:23;13.23;;;7.10;;
72920;SDS011;61064;51.654;5.476;2024-03-06T12:55:48;12.52;;;6.47;;
72920;SDS011;61064;51.654;5.476;2024-03-06T12:58:14;11.60;;;6.00;;
72920;SDS011;61064;51.654;5.476;2024-03-06T13:00:39;11.65;;;6.55;;
72920;SDS011;61064;51.654;5.476;2024-03-06T13:03:06;11.80;;;6.10;;
72920;SDS011;61064;51.654;5.476;2024-03-06T13:05:31;11.13;;;6.03;;
72920;SDS011;61064;51.654;5.476;2024-03-06T13:07:57;9.73;;;5.77;;
72920;SDS011;61064;51.654;5.476;2024-03-06T13:10:24;10.90;;;5.80;;
72920;SDS011;61064;51.654;5.476;2024-03-06T13:12:50;10.07;;;5.67;;
72920;SDS011;61064;51.654;5.476;2024-03-06T13:15:15;10.30;;;5.37;;
72920;SDS011;61064;51.654;5.476;2024-03-06T13:17:41;11.83;;;6.37;;
72920;SDS011;61064;51.654;5.476;2024-03-06T13:20:07;14.77;;;6.93;;
72920;SDS011;61064;51.654;5.476;2024-03-06T13:22:36;13.27;;;7.00;;
72920;SDS011;61064;51.654;5.476;2024-03-06T13:25:02;11.95;;;6.50;;
72920;SDS011;61064;51.654;5.476;2024-03-06T13:27:28;11.70;;;6.53;;
72920;SDS011;61064;51.654;5.476;2024-03-06T13:29:54;10.77;;;5.23;;
72920;SDS011;61064;51.654;5.476;2024-03-06T13:32:22;12.60;;;6.03;;
72920;SDS011;61064;51.654;5.476;2024-03-06T13:34:48;10.90;;;5.38;;
72920;SDS011;61064;51.654;5.476;2024-03-06T13:37:14;11.47;;;5.43;;
72920;SDS011;61064;51.654;5.476;2024-03-06T13:39:39;11.20;;;5.85;;
72920;SDS011;61064;51.654;5.476;2024-03-06T13:42:05;9.97;;;5.33;;
72920;SDS011;61064;51.654;5.476;2024-03-06T13:44:31;13.02;;;5.88;;
72920;SDS011;61064;51.654;5.476;2024-03-06T13:47:29;11.15;;;6.10;;
72920;SDS011;61064;51.654;5.476;2024-03-06T13:49:58;13.30;;;6.75;;
72920;SDS011;61064;51.654;5.476;2024-03-06T13:52:23;11.80;;;6.10;;
72920;SDS011;61064;51.654;5.476;2024-03-06T13:57:50;12.00;;;5.97;;
72920;SDS011;61064;51.654;5.476;2024-03-06T14:00:16;9.65;;;5.40;;
72920;SDS011;61064;51.654;5.476;2024-03-06T14:03:09;11.02;;;6.45;;
72920;SDS011;61064;51.654;5.476;2024-03-06T14:05:55;10.85;;;6.15;;
72920;SDS011;61064;51.654;5.476;2024-03-06T14:08:23;10.05;;;5.28;;
72920;SDS011;61064;51.654;5.476;2024-03-06T14:11:02;11.87;;;5.73;;
72920;SDS011;61064;51.654;5.476;2024-03-06T14:13:31;9.30;;;5.55;;
72920;SDS011;61064;51.654;5.476;2024-03-06T14:15:57;10.63;;;6.18;;
72920;SDS011;61064;51.654;5.476;2024-03-06T14:18:26;11.23;;;6.10;;
72920;SDS011;61064;51.654;5.476;2024-03-06T14:20:51;10.20;;;6.00;;
72920;SDS011;61064;51.654;5.476;2024-03-06T14:23:17;10.87;;;6.70;;
72920;SDS011;61064;51.654;5.476;2024-03-06T14:25:42;11.67;;;7.27;;
72920;SDS011;61064;51.654;5.476;2024-03-06T14:28:07;10.30;;;6.40;;
72920;SDS011;61064;51.654;5.476;2024-03-06T14:30:33;11.52;;;6.60;;
72920;SDS011;61064;51.654;5.476;2024-03-06T14:32:58;12.87;;;6.77;;
72920;SDS011;61064;51.654;5.476;2024-03-06T14:35:24;13.03;;;7.30;;
72920;SDS011;61064;51.654;5.476;2024-03-06T14:37:50;11.85;;;6.95;;
72920;SDS011;61064;51.654;5.476;2024-03-06T14:40:15;11.60;;;6.27;;